sensor_id;sensor_type;location;lat;lon;timestamp;P1;durP1;ratioP1;P2;durP2;ratioP2
55312;SDS011;46892;45.668;11.756;2023-03-15T00:01:59;16.40;;;10.33;;
55312;SDS011;46892;45.668;11.756;2023-03-15T00:04:25;15.27;;;9.33;;
55312;SDS011;46892;45.668;11.756;2023-03-15T00:06:51;15.20;;;9.40;;
55312;SDS011;46892;45.668;11.756;2023-03-15T00:09:18;14.33;;;10.40;;
55312;SDS011;46892;45.668;11.756;2023-03-15T00:11:43;15.40;;;10.87;;
55312;SDS011;46892;45.668;11.756;2023-03-15T00:14:09;14.90;;;10.30;;
55312;SDS011;46892;45.668;11.756;2023-03-15T00:16:35;15.63;;;10.43;;
55312;SDS011;46892;45.668;11.756;2023-03-15T00:19:01;14.33;;;9.83;;
55312;SDS011;46892;45.668;11.756;2023-03-15T00:21:27;15.23;;;10.00;;
55312;SDS011;46892;45.668;11.756;2023-03-15T00:23:54;16.00;;;9.83;;
55312;SDS011;46892;45.668;11.756;2023-03-15T00:26:20;13.90;;;10.13;;
55312;SDS011;46892;45.668;11.756;2023-03-15T00:28:46;14.70;;;10.20;;
55312;SDS011;46892;45.668;11.756;2023-03-15T00:33:39;16.07;;;10.33;;
55312;SDS011;46892;45.668;11.756;2023-03-15T00:36:06;13.70;;;9.13;;
55312;SDS011;46892;45.668;11.756;2023-03-15T00:38:34;14.50;;;8.60;;
55312;SDS011;46892;45.668;11.756;2023-03-15T00:41:18;13.23;;;9.70;;
55312;SDS011;46892;45.668;11.756;2023-03-15T00:43:45;12.40;;;9.10;;
55312;SDS011;46892;45.668;11.756;2023-03-15T00:46:12;12.77;;;9.87;;
55312;SDS011;46892;45.668;11.756;2023-03-15T00:48:39;14.87;;;10.03;;
55312;SDS011;46892;45.668;11.756;2023-03-15T00:53:33;14.57;;;9.23;;
55312;SDS011;46892;45.668;11.756;2023-03-15T00:56:06;13.60;;;10.17;;
55312;SDS011;46892;45.668;11.756;2023-03-15T00:58:37;15.87;;;11.37;;
55312;SDS011;46892;45.668;11.756;2023-03-15T01:01:22;18.97;;;11.83;;
55312;SDS011;46892;45.668;11.756;2023-03-15T01:03:49;17.77;;;12.07;;
55312;SDS011;46892;45.668;11.756;2023-03-15T01:06:16;18.17;;;13.27;;
55312;SDS011;46892;45.668;11.756;2023-03-15T01:08:44;19.67;;;14.27;;
55312;SDS011;46892;45.668;11.756;2023-03-15T01:11:12;20.70;;;15.87;;
55312;SDS011;46892;45.668;11.756;2023-03-15T01:13:39;22.13;;;16.00;;
55312;SDS011;46892;45.668;11.756;2023-03-15T01:16:05;20.77;;;16.57;;
55312;SDS011;46892;45.668;11.756;2023-03-15T01:18:31;21.27;;;17.47;;
55312;SDS011;46892;45.668;11.756;2023-03-15T01:20:57;22.40;;;17.97;;
55312;SDS011;46892;45.668;11.756;2023-03-15T01:23:23;22.80;;;18.47;;
55312;SDS011;46892;45.668;11.756;2023-03-15T01:25:49;22.67;;;17.37;;
55312;SDS011;46892;45.668;11.756;2023-03-15T01:28:15;27.17;;;19.83;;
55312;SDS011;46892;45.668;11.756;2023-03-15T01:30:47;26.67;;;19.50;;
55312;SDS011;46892;45.668;11.756;2023-03-15T01:33:14;25.13;;;19.43;;
55312;SDS011;46892;45.668;11.756;2023-03-15T01:35:40;23.07;;;18.67;;
55312;SDS011;46892;45.668;11.756;2023-03-15T01:38:05;26.93;;;19.67;;
55312;SDS011;46892;45.668;11.756;2023-03-15T01:40:31;29.17;;;21.67;;
55312;SDS011;46892;45.668;11.756;2023-03-15T01:51:01;24.90;;;19.27;;
55312;SDS011;46892;45.668;11.756;2023-03-15T01:53:41;26.17;;;19.83;;
55312;SDS011;46892;45.668;11.756;2023-03-15T01:56:09;22.43;;;18.10;;
55312;SDS011;46892;45.668;11.756;2023-03-15T01:58:35;23.13;;;17.63;;
55312;SDS011;46892;45.668;11.756;2023-03-15T02:01:02;23.47;;;18.47;;
55312;SDS011;46892;45.668;11.756;2023-03-15T02:03:29;21.77;;;17.47;;
55312;SDS011;46892;45.668;11.756;2023-03-15T02:06:01;25.57;;;19.10;;
55312;SDS011;46892;45.668;11.756;2023-03-15T02:08:32;22.23;;;17.53;;
55312;SDS011;46892;45.668;11.756;2023-03-15T02:13:28;22.57;;;18.20;;
55312;SDS011;46892;45.668;11.756;2023-03-15T02:15:55;26.53;;;19.67;;
55312;SDS011;46892;45.668;11.756;2023-03-15T02:18:21;22.23;;;16.97;;
55312;SDS011;46892;45.668;11.756;2023-03-15T02:26:54;21.40;;;16.37;;
55312;SDS011;46892;45.668;11.756;2023-03-15T02:29:21;22.97;;;17.10;;
55312;SDS011;46892;45.668;11.756;2023-03-15T02:31:49;23.57;;;18.60;;
55312;SDS011;46892;45.668;11.756;2023-03-15T02:34:15;24.33;;;18.83;;
55312;SDS011;46892;45.668;11.756;2023-03-15T02:36:40;22.97;;;17.73;;
55312;SDS011;46892;45.668;11.756;2023-03-15T02:39:16;23.10;;;17.57;;
55312;SDS011;46892;45.668;11.756;2023-03-15T02:41:56;21.23;;;17.10;;
55312;SDS011;46892;45.668;11.756;2023-03-15T02:44:26;22.30;;;17.87;;
55312;SDS011;46892;45.668;11.756;2023-03-15T02:49:31;22.90;;;16.63;;
55312;SDS011;46892;45.668;11.756;2023-03-15T02:52:04;22.43;;;17.20;;
55312;SDS011;46892;45.668;11.756;2023-03-15T02:54:30;22.77;;;17.43;;
55312;SDS011;46892;45.668;11.756;2023-03-15T02:56:58;21.47;;;16.97;;
55312;SDS011;46892;45.668;11.756;2023-03-15T02:59:25;20.00;;;15.50;;
55312;SDS011;46892;45.668;11.756;2023-03-15T03:01:51;20.23;;;15.93;;
55312;SDS011;46892;45.668;11.756;2023-03-15T03:04:17;21.87;;;16.77;;
55312;SDS011;46892;45.668;11.756;2023-03-15T03:06:43;25.70;;;17.70;;
55312;SDS011;46892;45.668;11.756;2023-03-15T03:09:09;21.20;;;16.70;;
55312;SDS011;46892;45.668;11.756;2023-03-15T03:11:35;24.67;;;20.60;;
55312;SDS011;46892;45.668;11.756;2023-03-15T03:14:01;24.47;;;17.10;;
55312;SDS011;46892;45.668;11.756;2023-03-15T03:16:27;23.13;;;16.10;;
55312;SDS011;46892;45.668;11.756;2023-03-15T03:18:52;23.60;;;15.83;;
55312;SDS011;46892;45.668;11.756;2023-03-15T03:21:18;22.47;;;17.83;;
55312;SDS011;46892;45.668;11.756;2023-03-15T03:23:44;18.03;;;12.73;;
55312;SDS011;46892;45.668;11.756;2023-03-15T03:26:13;12.00;;;10.63;;
55312;SDS011;46892;45.668;11.756;2023-03-15T03:28:42;12.87;;;10.93;;
55312;SDS011;46892;45.668;11.756;2023-03-15T03:31:17;17.13;;;13.50;;
55312;SDS011;46892;45.668;11.756;2023-03-15T03:33:45;13.10;;;11.47;;
55312;SDS011;46892;45.668;11.756;2023-03-15T03:36:10;16.73;;;11.63;;
55312;SDS011;46892;45.668;11.756;2023-03-15T03:38:38;10.70;;;9.53;;
55312;SDS011;46892;45.668;11.756;2023-03-15T03:41:06;16.20;;;13.10;;
55312;SDS011;46892;45.668;11.756;2023-03-15T03:43:32;16.50;;;13.00;;
55312;SDS011;46892;45.668;11.756;2023-03-15T03:45:58;16.63;;;13.17;;
55312;SDS011;46892;45.668;11.756;2023-03-15T03:48:23;14.43;;;12.23;;
55312;SDS011;46892;45.668;11.756;2023-03-15T03:50:49;14.97;;;11.67;;
55312;SDS011;46892;45.668;11.756;2023-03-15T03:53:15;8.23;;;7.10;;
55312;SDS011;46892;45.668;11.756;2023-03-15T03:55:40;9.80;;;7.40;;
55312;SDS011;46892;45.668;11.756;2023-03-15T03:58:07;19.40;;;10.87;;
55312;SDS011;46892;45.668;11.756;2023-03-15T04:00:33;14.27;;;12.27;;
55312;SDS011;46892;45.668;11.756;2023-03-15T04:02:59;17.53;;;14.07;;
55312;SDS011;46892;45.668;11.756;2023-03-15T04:05:26;26.00;;;16.80;;
55312;SDS011;46892;45.668;11.756;2023-03-15T04:07:52;21.13;;;17.40;;
55312;SDS011;46892;45.668;11.756;2023-03-15T04:10:18;25.00;;;18.80;;
55312;SDS011;46892;45.668;11.756;2023-03-15T04:12:52;26.67;;;20.80;;
55312;SDS011;46892;45.668;11.756;2023-03-15T04:15:18;27.80;;;20.97;;
55312;SDS011;46892;45.668;11.756;2023-03-15T04:17:46;25.80;;;20.13;;
55312;SDS011;46892;45.668;11.756;2023-03-15T04:20:22;31.93;;;19.50;;
55312;SDS011;46892;45.668;11.756;2023-03-15T04:22:52;22.13;;;17.37;;
55312;SDS011;46892;45.668;11.756;2023-03-15T04:25:19;26.30;;;19.97;;
55312;SDS011;46892;45.668;11.756;2023-03-15T04:27:45;31.10;;;20.67;;
55312;SDS011;46892;45.668;11.756;2023-03-15T04:30:22;31.83;;;20.00;;
55312;SDS011;46892;45.668;11.756;2023-03-15T04:32:52;20.80;;;17.75;;
55312;SDS011;46892;45.668;11.756;2023-03-15T04:35:28;19.77;;;17.50;;
55312;SDS011;46892;45.668;11.756;2023-03-15T04:37:55;23.63;;;17.23;;
55312;SDS011;46892;45.668;11.756;2023-03-15T04:40:21;20.70;;;16.77;;
55312;SDS011;46892;45.668;11.756;2023-03-15T04:42:51;19.73;;;15.43;;
55312;SDS011;46892;45.668;11.756;2023-03-15T04:45:23;21.03;;;16.53;;
55312;SDS011;46892;45.668;11.756;2023-03-15T04:47:50;20.20;;;14.73;;
55312;SDS011;46892;45.668;11.756;2023-03-15T04:50:19;19.73;;;15.77;;
55312;SDS011;46892;45.668;11.756;2023-03-15T04:52:45;17.33;;;13.90;;
55312;SDS011;46892;45.668;11.756;2023-03-15T04:55:11;19.97;;;14.20;;
55312;SDS011;46892;45.668;11.756;2023-03-15T04:57:37;16.27;;;13.33;;
55312;SDS011;46892;45.668;11.756;2023-03-15T05:00:03;17.77;;;13.27;;
55312;SDS011;46892;45.668;11.756;2023-03-15T05:02:34;17.38;;;13.10;;
55312;SDS011;46892;45.668;11.756;2023-03-15T05:05:04;23.77;;;15.02;;
55312;SDS011;46892;45.668;11.756;2023-03-15T05:07:31;21.47;;;15.73;;
55312;SDS011;46892;45.668;11.756;2023-03-15T05:09:58;19.03;;;15.30;;
55312;SDS011;46892;45.668;11.756;2023-03-15T05:12:24;20.40;;;14.33;;
55312;SDS011;46892;45.668;11.756;2023-03-15T05:14:49;20.67;;;14.93;;
55312;SDS011;46892;45.668;11.756;2023-03-15T05:17:15;22.27;;;16.77;;
55312;SDS011;46892;45.668;11.756;2023-03-15T05:19:41;23.30;;;18.03;;
55312;SDS011;46892;45.668;11.756;2023-03-15T05:22:06;24.97;;;18.57;;
55312;SDS011;46892;45.668;11.756;2023-03-15T05:24:32;23.70;;;18.97;;
55312;SDS011;46892;45.668;11.756;2023-03-15T05:26:58;24.10;;;16.60;;
55312;SDS011;46892;45.668;11.756;2023-03-15T05:29:23;23.73;;;18.40;;
55312;SDS011;46892;45.668;11.756;2023-03-15T05:31:50;23.73;;;18.43;;
55312;SDS011;46892;45.668;11.756;2023-03-15T05:34:16;23.13;;;17.80;;
55312;SDS011;46892;45.668;11.756;2023-03-15T05:36:43;26.20;;;17.07;;
55312;SDS011;46892;45.668;11.756;2023-03-15T05:39:09;18.50;;;14.63;;
55312;SDS011;46892;45.668;11.756;2023-03-15T05:41:35;16.67;;;12.07;;
55312;SDS011;46892;45.668;11.756;2023-03-15T05:44:01;18.13;;;13.23;;
55312;SDS011;46892;45.668;11.756;2023-03-15T05:46:28;18.50;;;13.40;;
55312;SDS011;46892;45.668;11.756;2023-03-15T05:48:53;19.03;;;13.10;;
55312;SDS011;46892;45.668;11.756;2023-03-15T05:51:19;17.37;;;13.47;;
55312;SDS011;46892;45.668;11.756;2023-03-15T05:53:45;17.60;;;13.20;;
55312;SDS011;46892;45.668;11.756;2023-03-15T05:56:10;19.30;;;15.30;;
55312;SDS011;46892;45.668;11.756;2023-03-15T05:58:36;25.67;;;17.90;;
55312;SDS011;46892;45.668;11.756;2023-03-15T06:01:02;24.50;;;19.03;;
55312;SDS011;46892;45.668;11.756;2023-03-15T06:03:29;30.33;;;21.67;;
55312;SDS011;46892;45.668;11.756;2023-03-15T06:05:56;29.47;;;21.83;;
55312;SDS011;46892;45.668;11.756;2023-03-15T06:08:22;32.73;;;22.27;;
55312;SDS011;46892;45.668;11.756;2023-03-15T06:10:48;27.10;;;21.20;;
55312;SDS011;46892;45.668;11.756;2023-03-15T06:13:14;33.07;;;23.53;;
55312;SDS011;46892;45.668;11.756;2023-03-15T06:15:40;28.43;;;22.33;;
55312;SDS011;46892;45.668;11.756;2023-03-15T06:18:05;25.73;;;20.13;;
55312;SDS011;46892;45.668;11.756;2023-03-15T06:20:32;22.77;;;18.37;;
55312;SDS011;46892;45.668;11.756;2023-03-15T06:22:57;26.10;;;21.23;;
55312;SDS011;46892;45.668;11.756;2023-03-15T06:25:23;24.97;;;20.23;;
55312;SDS011;46892;45.668;11.756;2023-03-15T06:27:49;29.03;;;20.63;;
55312;SDS011;46892;45.668;11.756;2023-03-15T06:30:15;25.93;;;20.40;;
55312;SDS011;46892;45.668;11.756;2023-03-15T06:32:40;23.57;;;18.53;;
55312;SDS011;46892;45.668;11.756;2023-03-15T06:35:06;23.73;;;18.53;;
55312;SDS011;46892;45.668;11.756;2023-03-15T06:37:32;21.03;;;16.43;;
55312;SDS011;46892;45.668;11.756;2023-03-15T06:40:00;19.50;;;16.07;;
55312;SDS011;46892;45.668;11.756;2023-03-15T06:42:28;23.57;;;16.80;;
55312;SDS011;46892;45.668;11.756;2023-03-15T06:44:53;22.67;;;17.53;;
55312;SDS011;46892;45.668;11.756;2023-03-15T06:47:19;20.07;;;15.73;;
55312;SDS011;46892;45.668;11.756;2023-03-15T06:49:45;20.00;;;14.67;;
55312;SDS011;46892;45.668;11.756;2023-03-15T06:52:14;20.13;;;14.67;;
55312;SDS011;46892;45.668;11.756;2023-03-15T06:54:40;21.53;;;13.57;;
55312;SDS011;46892;45.668;11.756;2023-03-15T06:57:06;24.07;;;15.30;;
55312;SDS011;46892;45.668;11.756;2023-03-15T06:59:31;20.70;;;14.27;;
55312;SDS011;46892;45.668;11.756;2023-03-15T07:01:57;19.17;;;13.63;;
55312;SDS011;46892;45.668;11.756;2023-03-15T07:04:23;24.23;;;14.73;;
55312;SDS011;46892;45.668;11.756;2023-03-15T07:06:48;18.07;;;13.60;;
55312;SDS011;46892;45.668;11.756;2023-03-15T07:09:14;21.03;;;13.13;;
55312;SDS011;46892;45.668;11.756;2023-03-15T07:11:40;18.37;;;13.10;;
55312;SDS011;46892;45.668;11.756;2023-03-15T07:14:05;19.17;;;12.40;;
55312;SDS011;46892;45.668;11.756;2023-03-15T07:16:31;16.60;;;12.73;;
55312;SDS011;46892;45.668;11.756;2023-03-15T07:18:57;20.17;;;13.57;;
55312;SDS011;46892;45.668;11.756;2023-03-15T07:21:24;18.93;;;12.67;;
55312;SDS011;46892;45.668;11.756;2023-03-15T07:23:50;20.70;;;15.63;;
55312;SDS011;46892;45.668;11.756;2023-03-15T07:26:16;21.93;;;15.10;;
55312;SDS011;46892;45.668;11.756;2023-03-15T07:28:41;17.03;;;14.43;;
55312;SDS011;46892;45.668;11.756;2023-03-15T07:31:09;20.97;;;14.47;;
55312;SDS011;46892;45.668;11.756;2023-03-15T07:33:35;21.73;;;14.67;;
55312;SDS011;46892;45.668;11.756;2023-03-15T07:36:02;21.73;;;13.33;;
55312;SDS011;46892;45.668;11.756;2023-03-15T07:38:29;17.50;;;12.73;;
55312;SDS011;46892;45.668;11.756;2023-03-15T07:40:55;15.13;;;11.93;;
55312;SDS011;46892;45.668;11.756;2023-03-15T07:43:21;15.33;;;11.33;;
55312;SDS011;46892;45.668;11.756;2023-03-15T07:45:48;20.00;;;10.73;;
55312;SDS011;46892;45.668;11.756;2023-03-15T07:48:14;15.67;;;10.27;;
55312;SDS011;46892;45.668;11.756;2023-03-15T07:50:40;20.10;;;10.07;;
55312;SDS011;46892;45.668;11.756;2023-03-15T07:53:06;13.17;;;9.87;;
55312;SDS011;46892;45.668;11.756;2023-03-15T07:55:32;14.63;;;10.13;;
55312;SDS011;46892;45.668;11.756;2023-03-15T07:57:59;14.83;;;10.00;;
55312;SDS011;46892;45.668;11.756;2023-03-15T08:00:25;13.57;;;9.27;;
55312;SDS011;46892;45.668;11.756;2023-03-15T08:02:51;16.40;;;11.17;;
55312;SDS011;46892;45.668;11.756;2023-03-15T08:05:17;13.13;;;9.50;;
55312;SDS011;46892;45.668;11.756;2023-03-15T08:07:49;12.60;;;9.87;;
55312;SDS011;46892;45.668;11.756;2023-03-15T08:10:16;14.03;;;10.20;;
55312;SDS011;46892;45.668;11.756;2023-03-15T08:12:42;16.23;;;11.17;;
55312;SDS011;46892;45.668;11.756;2023-03-15T08:15:09;17.83;;;12.10;;
55312;SDS011;46892;45.668;11.756;2023-03-15T08:17:36;24.87;;;13.17;;
55312;SDS011;46892;45.668;11.756;2023-03-15T08:20:02;18.90;;;13.13;;
55312;SDS011;46892;45.668;11.756;2023-03-15T08:22:29;17.67;;;13.73;;
55312;SDS011;46892;45.668;11.756;2023-03-15T08:24:55;15.80;;;11.93;;
55312;SDS011;46892;45.668;11.756;2023-03-15T08:27:22;18.37;;;14.60;;
55312;SDS011;46892;45.668;11.756;2023-03-15T08:29:48;18.03;;;14.13;;
55312;SDS011;46892;45.668;11.756;2023-03-15T08:32:16;17.77;;;12.90;;
55312;SDS011;46892;45.668;11.756;2023-03-15T08:34:43;16.80;;;12.40;;
55312;SDS011;46892;45.668;11.756;2023-03-15T08:37:09;16.83;;;13.50;;
55312;SDS011;46892;45.668;11.756;2023-03-15T08:39:36;16.53;;;12.63;;
55312;SDS011;46892;45.668;11.756;2023-03-15T08:42:03;15.53;;;11.57;;
55312;SDS011;46892;45.668;11.756;2023-03-15T08:44:29;13.13;;;9.70;;
55312;SDS011;46892;45.668;11.756;2023-03-15T08:46:54;12.77;;;9.27;;
55312;SDS011;46892;45.668;11.756;2023-03-15T08:49:20;11.10;;;7.90;;
55312;SDS011;46892;45.668;11.756;2023-03-15T08:51:46;12.83;;;8.37;;
55312;SDS011;46892;45.668;11.756;2023-03-15T08:54:12;11.73;;;8.70;;
55312;SDS011;46892;45.668;11.756;2023-03-15T08:56:38;10.33;;;8.20;;
55312;SDS011;46892;45.668;11.756;2023-03-15T08:59:05;12.77;;;8.30;;
55312;SDS011;46892;45.668;11.756;2023-03-15T09:01:34;10.17;;;6.87;;
55312;SDS011;46892;45.668;11.756;2023-03-15T09:04:00;10.93;;;8.10;;
55312;SDS011;46892;45.668;11.756;2023-03-15T09:06:26;12.00;;;8.00;;
55312;SDS011;46892;45.668;11.756;2023-03-15T09:08:52;14.07;;;8.67;;
55312;SDS011;46892;45.668;11.756;2023-03-15T09:11:19;19.80;;;14.87;;
55312;SDS011;46892;45.668;11.756;2023-03-15T09:13:45;22.60;;;16.43;;
55312;SDS011;46892;45.668;11.756;2023-03-15T09:16:11;21.90;;;17.20;;
55312;SDS011;46892;45.668;11.756;2023-03-15T09:18:37;5.70;;;3.00;;
55312;SDS011;46892;45.668;11.756;2023-03-15T09:21:05;1.93;;;1.03;;
55312;SDS011;46892;45.668;11.756;2023-03-15T09:23:31;1.20;;;0.83;;
55312;SDS011;46892;45.668;11.756;2023-03-15T09:25:57;2.63;;;0.57;;
55312;SDS011;46892;45.668;11.756;2023-03-15T09:28:22;1.20;;;0.63;;
55312;SDS011;46892;45.668;11.756;2023-03-15T09:30:49;3.93;;;0.90;;
55312;SDS011;46892;45.668;11.756;2023-03-15T09:33:15;2.20;;;0.90;;
55312;SDS011;46892;45.668;11.756;2023-03-15T09:35:41;2.80;;;1.07;;
55312;SDS011;46892;45.668;11.756;2023-03-15T09:38:07;2.40;;;0.63;;
55312;SDS011;46892;45.668;11.756;2023-03-15T09:40:34;1.53;;;0.70;;
55312;SDS011;46892;45.668;11.756;2023-03-15T09:45:51;1.17;;;0.30;;
55312;SDS011;46892;45.668;11.756;2023-03-15T09:50:50;0.77;;;0.60;;
55312;SDS011;46892;45.668;11.756;2023-03-15T09:55:53;0.83;;;0.50;;
55312;SDS011;46892;45.668;11.756;2023-03-15T09:58:25;2.77;;;0.90;;
55312;SDS011;46892;45.668;11.756;2023-03-15T10:00:59;0.77;;;0.67;;
55312;SDS011;46892;45.668;11.756;2023-03-15T10:06:27;2.67;;;0.80;;
55312;SDS011;46892;45.668;11.756;2023-03-15T10:08:58;1.10;;;0.57;;
55312;SDS011;46892;45.668;11.756;2023-03-15T10:16:47;1.50;;;0.60;;
55312;SDS011;46892;45.668;11.756;2023-03-15T10:21:57;1.43;;;0.50;;
55312;SDS011;46892;45.668;11.756;2023-03-15T10:27:14;1.30;;;0.60;;
55312;SDS011;46892;45.668;11.756;2023-03-15T10:29:50;0.70;;;0.43;;
55312;SDS011;46892;45.668;11.756;2023-03-15T10:32:19;1.30;;;0.57;;
55312;SDS011;46892;45.668;11.756;2023-03-15T10:34:49;0.90;;;0.60;;
55312;SDS011;46892;45.668;11.756;2023-03-15T10:37:19;0.60;;;0.50;;
55312;SDS011;46892;45.668;11.756;2023-03-15T10:39:48;1.67;;;0.57;;
55312;SDS011;46892;45.668;11.756;2023-03-15T10:42:29;1.97;;;0.57;;
55312;SDS011;46892;45.668;11.756;2023-03-15T10:44:56;2.00;;;0.50;;
55312;SDS011;46892;45.668;11.756;2023-03-15T10:47:24;0.40;;;0.40;;
55312;SDS011;46892;45.668;11.756;2023-03-15T10:49:57;0.77;;;0.43;;
55312;SDS011;46892;45.668;11.756;2023-03-15T10:52:41;2.57;;;0.63;;
55312;SDS011;46892;45.668;11.756;2023-03-15T10:57:36;1.93;;;0.60;;
55312;SDS011;46892;45.668;11.756;2023-03-15T11:00:27;1.07;;;0.50;;
55312;SDS011;46892;45.668;11.756;2023-03-15T11:02:53;1.83;;;0.60;;
55312;SDS011;46892;45.668;11.756;2023-03-15T11:05:30;1.70;;;0.50;;
55312;SDS011;46892;45.668;11.756;2023-03-15T11:08:09;0.80;;;0.60;;
55312;SDS011;46892;45.668;11.756;2023-03-15T11:10:37;1.13;;;0.60;;
55312;SDS011;46892;45.668;11.756;2023-03-15T11:15:56;1.53;;;0.60;;
55312;SDS011;46892;45.668;11.756;2023-03-15T11:18:42;0.77;;;0.60;;
55312;SDS011;46892;45.668;11.756;2023-03-15T11:21:20;1.93;;;0.90;;
55312;SDS011;46892;45.668;11.756;2023-03-15T11:23:49;1.58;;;0.93;;
55312;SDS011;46892;45.668;11.756;2023-03-15T11:26:21;2.53;;;1.00;;
55312;SDS011;46892;45.668;11.756;2023-03-15T11:28:52;2.00;;;1.00;;
55312;SDS011;46892;45.668;11.756;2023-03-15T11:31:23;1.63;;;1.00;;
55312;SDS011;46892;45.668;11.756;2023-03-15T11:36:25;2.13;;;1.00;;
55312;SDS011;46892;45.668;11.756;2023-03-15T11:38:55;1.20;;;0.95;;
55312;SDS011;46892;45.668;11.756;2023-03-15T11:41:41;1.93;;;1.10;;
55312;SDS011;46892;45.668;11.756;2023-03-15T11:44:25;2.20;;;1.00;;
55312;SDS011;46892;45.668;11.756;2023-03-15T11:47:02;1.70;;;0.90;;
55312;SDS011;46892;45.668;11.756;2023-03-15T11:49:50;1.97;;;1.00;;
55312;SDS011;46892;45.668;11.756;2023-03-15T11:52:21;5.03;;;1.20;;
55312;SDS011;46892;45.668;11.756;2023-03-15T11:54:49;4.47;;;1.20;;
55312;SDS011;46892;45.668;11.756;2023-03-15T11:57:37;2.77;;;1.20;;
55312;SDS011;46892;45.668;11.756;2023-03-15T12:02:51;2.93;;;1.30;;
55312;SDS011;46892;45.668;11.756;2023-03-15T12:10:44;1.90;;;1.30;;
55312;SDS011;46892;45.668;11.756;2023-03-15T12:13:19;2.17;;;1.10;;
55312;SDS011;46892;45.668;11.756;2023-03-15T12:15:48;2.07;;;1.30;;
55312;SDS011;46892;45.668;11.756;2023-03-15T12:18:15;2.33;;;1.20;;
55312;SDS011;46892;45.668;11.756;2023-03-15T12:20:49;1.80;;;1.27;;
55312;SDS011;46892;45.668;11.756;2023-03-15T12:23:40;2.15;;;1.20;;
55312;SDS011;46892;45.668;11.756;2023-03-15T12:29:14;1.77;;;1.23;;
55312;SDS011;46892;45.668;11.756;2023-03-15T12:31:50;4.10;;;1.60;;
55312;SDS011;46892;45.668;11.756;2023-03-15T12:34:27;2.77;;;1.80;;
55312;SDS011;46892;45.668;11.756;2023-03-15T12:37:06;1.50;;;1.10;;
55312;SDS011;46892;45.668;11.756;2023-03-15T12:42:11;4.00;;;1.42;;
55312;SDS011;46892;45.668;11.756;2023-03-15T12:44:53;1.93;;;1.37;;
55312;SDS011;46892;45.668;11.756;2023-03-15T12:47:18;2.40;;;1.23;;
55312;SDS011;46892;45.668;11.756;2023-03-15T12:49:44;1.70;;;1.20;;
55312;SDS011;46892;45.668;11.756;2023-03-15T12:54:41;3.23;;;1.47;;
55312;SDS011;46892;45.668;11.756;2023-03-15T12:57:20;2.50;;;1.40;;
55312;SDS011;46892;45.668;11.756;2023-03-15T13:00:02;4.03;;;1.47;;
55312;SDS011;46892;45.668;11.756;2023-03-15T13:02:58;3.23;;;1.23;;
55312;SDS011;46892;45.668;11.756;2023-03-15T13:05:33;2.30;;;1.30;;
55312;SDS011;46892;45.668;11.756;2023-03-15T13:08:22;2.30;;;1.33;;
55312;SDS011;46892;45.668;11.756;2023-03-15T13:13:27;2.53;;;1.37;;
55312;SDS011;46892;45.668;11.756;2023-03-15T13:18:51;2.00;;;1.30;;
55312;SDS011;46892;45.668;11.756;2023-03-15T13:21:35;3.13;;;1.33;;
55312;SDS011;46892;45.668;11.756;2023-03-15T13:24:11;1.17;;;0.97;;
55312;SDS011;46892;45.668;11.756;2023-03-15T13:26:51;2.00;;;1.17;;
55312;SDS011;46892;45.668;11.756;2023-03-15T13:29:25;2.60;;;1.57;;
55312;SDS011;46892;45.668;11.756;2023-03-15T13:32:01;2.23;;;1.37;;
55312;SDS011;46892;45.668;11.756;2023-03-15T13:34:34;2.55;;;1.20;;
55312;SDS011;46892;45.668;11.756;2023-03-15T13:37:00;2.57;;;1.10;;
55312;SDS011;46892;45.668;11.756;2023-03-15T13:39:29;1.27;;;1.17;;
55312;SDS011;46892;45.668;11.756;2023-03-15T13:44:25;1.93;;;1.30;;
55312;SDS011;46892;45.668;11.756;2023-03-15T13:46:52;2.07;;;1.00;;
55312;SDS011;46892;45.668;11.756;2023-03-15T13:49:19;3.63;;;1.13;;
55312;SDS011;46892;45.668;11.756;2023-03-15T13:51:45;1.80;;;1.13;;
55312;SDS011;46892;45.668;11.756;2023-03-15T13:59:40;2.20;;;1.00;;
55312;SDS011;46892;45.668;11.756;2023-03-15T14:02:15;2.20;;;1.03;;
55312;SDS011;46892;45.668;11.756;2023-03-15T14:04:55;1.47;;;0.90;;
55312;SDS011;46892;45.668;11.756;2023-03-15T14:12:53;1.50;;;0.85;;
55312;SDS011;46892;45.668;11.756;2023-03-15T14:18:51;1.85;;;0.90;;
55312;SDS011;46892;45.668;11.756;2023-03-15T14:20:56;2.27;;;1.17;;
55312;SDS011;46892;45.668;11.756;2023-03-15T14:23:25;2.07;;;0.90;;
55312;SDS011;46892;45.668;11.756;2023-03-15T14:25:59;2.03;;;1.03;;
55312;SDS011;46892;45.668;11.756;2023-03-15T14:28:30;2.17;;;0.90;;
55312;SDS011;46892;45.668;11.756;2023-03-15T14:30:57;1.70;;;0.90;;
55312;SDS011;46892;45.668;11.756;2023-03-15T14:35:57;2.90;;;1.00;;
55312;SDS011;46892;45.668;11.756;2023-03-15T14:38:31;1.47;;;0.90;;
55312;SDS011;46892;45.668;11.756;2023-03-15T14:41:21;2.57;;;0.97;;
55312;SDS011;46892;45.668;11.756;2023-03-15T14:43:47;4.17;;;1.10;;
55312;SDS011;46892;45.668;11.756;2023-03-15T14:46:13;2.53;;;1.00;;
55312;SDS011;46892;45.668;11.756;2023-03-15T14:48:39;3.77;;;1.30;;
55312;SDS011;46892;45.668;11.756;2023-03-15T14:51:05;1.60;;;1.20;;
55312;SDS011;46892;45.668;11.756;2023-03-15T14:53:33;2.33;;;0.90;;
55312;SDS011;46892;45.668;11.756;2023-03-15T14:56:01;2.00;;;0.70;;
55312;SDS011;46892;45.668;11.756;2023-03-15T14:58:27;3.17;;;0.90;;
55312;SDS011;46892;45.668;11.756;2023-03-15T15:00:53;0.67;;;0.60;;
55312;SDS011;46892;45.668;11.756;2023-03-15T15:05:58;1.00;;;0.60;;
55312;SDS011;46892;45.668;11.756;2023-03-15T15:08:25;2.00;;;0.70;;
55312;SDS011;46892;45.668;11.756;2023-03-15T15:10:52;0.93;;;0.70;;
55312;SDS011;46892;45.668;11.756;2023-03-15T15:13:21;0.93;;;0.67;;
55312;SDS011;46892;45.668;11.756;2023-03-15T15:15:51;2.40;;;0.67;;
55312;SDS011;46892;45.668;11.756;2023-03-15T15:18:17;1.37;;;0.63;;
55312;SDS011;46892;45.668;11.756;2023-03-15T15:20:43;1.43;;;0.73;;
55312;SDS011;46892;45.668;11.756;2023-03-15T15:23:29;1.67;;;0.60;;
55312;SDS011;46892;45.668;11.756;2023-03-15T15:25:57;1.70;;;0.90;;
55312;SDS011;46892;45.668;11.756;2023-03-15T15:28:25;0.60;;;0.60;;
55312;SDS011;46892;45.668;11.756;2023-03-15T15:30:52;0.60;;;0.60;;
55312;SDS011;46892;45.668;11.756;2023-03-15T15:33:17;1.67;;;0.87;;
55312;SDS011;46892;45.668;11.756;2023-03-15T15:35:44;3.97;;;1.20;;
55312;SDS011;46892;45.668;11.756;2023-03-15T15:38:10;1.97;;;1.27;;
55312;SDS011;46892;45.668;11.756;2023-03-15T15:40:37;2.53;;;1.40;;
55312;SDS011;46892;45.668;11.756;2023-03-15T15:43:03;3.13;;;1.23;;
55312;SDS011;46892;45.668;11.756;2023-03-15T15:45:30;2.90;;;1.80;;
55312;SDS011;46892;45.668;11.756;2023-03-15T15:47:59;3.07;;;1.80;;
55312;SDS011;46892;45.668;11.756;2023-03-15T15:50:30;3.43;;;1.70;;
55312;SDS011;46892;45.668;11.756;2023-03-15T15:53:03;2.67;;;1.35;;
55312;SDS011;46892;45.668;11.756;2023-03-15T15:55:33;2.70;;;1.33;;
55312;SDS011;46892;45.668;11.756;2023-03-15T15:58:00;2.13;;;1.50;;
55312;SDS011;46892;45.668;11.756;2023-03-15T16:00:28;4.60;;;1.60;;
55312;SDS011;46892;45.668;11.756;2023-03-15T16:02:54;2.70;;;1.37;;
55312;SDS011;46892;45.668;11.756;2023-03-15T16:05:22;2.27;;;1.40;;